sensor_id;sensor_type;location;lat;lon;timestamp;P1;durP1;ratioP1;P2;durP2;ratioP2
37851;SDS011;23691;52.486;4.650;2023-07-08T00:00:42;9.40;;;3.15;;
37851;SDS011;23691;52.486;4.650;2023-07-08T00:03:08;8.20;;;3.30;;
37851;SDS011;23691;52.486;4.650;2023-07-08T00:05:34;7.93;;;2.95;;
37851;SDS011;23691;52.486;4.650;2023-07-08T00:08:00;9.30;;;2.95;;
37851;SDS011;23691;52.486;4.650;2023-07-08T00:10:27;10.02;;;2.90;;
37851;SDS011;23691;52.486;4.650;2023-07-08T00:12:55;8.57;;;3.03;;
37851;SDS011;23691;52.486;4.650;2023-07-08T00:15:23;8.00;;;3.05;;
37851;SDS011;23691;52.486;4.650;2023-07-08T00:17:51;7.32;;;3.20;;
37851;SDS011;23691;52.486;4.650;2023-07-08T00:20:17;8.98;;;2.90;;
37851;SDS011;23691;52.486;4.650;2023-07-08T00:22:48;9.70;;;3.00;;
37851;SDS011;23691;52.486;4.650;2023-07-08T00:25:16;11.18;;;3.05;;
37851;SDS011;23691;52.486;4.650;2023-07-08T00:27:45;10.82;;;3.20;;
37851;SDS011;23691;52.486;4.650;2023-07-08T00:30:25;8.35;;;3.30;;
37851;SDS011;23691;52.486;4.650;2023-07-08T00:32:53;8.02;;;3.10;;
37851;SDS011;23691;52.486;4.650;2023-07-08T00:35:30;7.90;;;2.88;;
37851;SDS011;23691;52.486;4.650;2023-07-08T00:37:58;9.20;;;3.35;;
37851;SDS011;23691;52.486;4.650;2023-07-08T00:40:30;8.48;;;3.30;;
37851;SDS011;23691;52.486;4.650;2023-07-08T00:42:58;6.60;;;2.78;;
37851;SDS011;23691;52.486;4.650;2023-07-08T00:45:29;9.48;;;3.22;;
37851;SDS011;23691;52.486;4.650;2023-07-08T00:48:23;10.43;;;3.53;;
37851;SDS011;23691;52.486;4.650;2023-07-08T00:50:53;9.03;;;3.17;;
37851;SDS011;23691;52.486;4.650;2023-07-08T00:53:30;7.80;;;3.00;;
37851;SDS011;23691;52.486;4.650;2023-07-08T00:58:33;11.30;;;3.75;;
37851;SDS011;23691;52.486;4.650;2023-07-08T01:01:05;10.20;;;3.38;;
37851;SDS011;23691;52.486;4.650;2023-07-08T01:03:33;8.50;;;3.20;;
37851;SDS011;23691;52.486;4.650;2023-07-08T01:06:04;8.18;;;3.55;;
37851;SDS011;23691;52.486;4.650;2023-07-08T01:08:31;8.90;;;3.43;;
37851;SDS011;23691;52.486;4.650;2023-07-08T01:11:01;10.52;;;3.60;;
37851;SDS011;23691;52.486;4.650;2023-07-08T01:13:30;11.27;;;3.45;;
37851;SDS011;23691;52.486;4.650;2023-07-08T01:16:03;10.60;;;3.70;;
37851;SDS011;23691;52.486;4.650;2023-07-08T01:18:30;10.95;;;3.97;;
37851;SDS011;23691;52.486;4.650;2023-07-08T01:21:00;10.35;;;4.00;;
37851;SDS011;23691;52.486;4.650;2023-07-08T01:23:27;9.90;;;3.58;;
37851;SDS011;23691;52.486;4.650;2023-07-08T01:25:53;9.82;;;3.40;;
37851;SDS011;23691;52.486;4.650;2023-07-08T01:28:18;11.18;;;3.60;;
37851;SDS011;23691;52.486;4.650;2023-07-08T01:30:45;8.20;;;2.58;;
37851;SDS011;23691;52.486;4.650;2023-07-08T01:33:13;9.80;;;3.70;;
37851;SDS011;23691;52.486;4.650;2023-07-08T01:35:42;9.55;;;3.92;;
37851;SDS011;23691;52.486;4.650;2023-07-08T01:38:08;13.10;;;3.92;;
37851;SDS011;23691;52.486;4.650;2023-07-08T01:40:38;9.70;;;3.95;;
37851;SDS011;23691;52.486;4.650;2023-07-08T01:43:13;9.95;;;3.65;;
37851;SDS011;23691;52.486;4.650;2023-07-08T01:45:39;10.07;;;3.83;;
37851;SDS011;23691;52.486;4.650;2023-07-08T01:48:07;8.90;;;3.83;;
37851;SDS011;23691;52.486;4.650;2023-07-08T01:50:37;10.85;;;3.80;;
37851;SDS011;23691;52.486;4.650;2023-07-08T01:53:13;11.43;;;3.40;;
37851;SDS011;23691;52.486;4.650;2023-07-08T01:55:46;9.48;;;3.50;;
37851;SDS011;23691;52.486;4.650;2023-07-08T01:58:12;9.15;;;3.60;;
37851;SDS011;23691;52.486;4.650;2023-07-08T02:00:37;9.93;;;4.03;;
37851;SDS011;23691;52.486;4.650;2023-07-08T02:03:03;9.70;;;3.80;;
37851;SDS011;23691;52.486;4.650;2023-07-08T02:05:28;9.35;;;3.75;;
37851;SDS011;23691;52.486;4.650;2023-07-08T02:07:54;10.52;;;3.75;;
37851;SDS011;23691;52.486;4.650;2023-07-08T02:10:21;9.07;;;4.15;;
37851;SDS011;23691;52.486;4.650;2023-07-08T02:12:47;11.00;;;4.13;;
37851;SDS011;23691;52.486;4.650;2023-07-08T02:15:12;11.13;;;3.83;;
37851;SDS011;23691;52.486;4.650;2023-07-08T02:17:38;8.50;;;3.72;;
37851;SDS011;23691;52.486;4.650;2023-07-08T02:20:04;8.40;;;3.45;;
37851;SDS011;23691;52.486;4.650;2023-07-08T02:22:30;11.35;;;3.80;;
37851;SDS011;23691;52.486;4.650;2023-07-08T02:24:55;9.55;;;3.75;;
37851;SDS011;23691;52.486;4.650;2023-07-08T02:27:22;8.57;;;3.65;;
37851;SDS011;23691;52.486;4.650;2023-07-08T02:29:47;12.05;;;4.05;;
37851;SDS011;23691;52.486;4.650;2023-07-08T02:32:18;8.68;;;3.83;;
37851;SDS011;23691;52.486;4.650;2023-07-08T02:34:44;8.18;;;3.53;;
37851;SDS011;23691;52.486;4.650;2023-07-08T02:37:09;10.77;;;4.05;;
37851;SDS011;23691;52.486;4.650;2023-07-08T02:39:35;10.77;;;3.85;;
37851;SDS011;23691;52.486;4.650;2023-07-08T02:42:00;9.68;;;3.28;;
37851;SDS011;23691;52.486;4.650;2023-07-08T02:44:26;10.65;;;3.85;;
37851;SDS011;23691;52.486;4.650;2023-07-08T02:46:51;9.40;;;3.88;;
37851;SDS011;23691;52.486;4.650;2023-07-08T02:49:17;8.18;;;3.33;;
37851;SDS011;23691;52.486;4.650;2023-07-08T02:51:42;9.25;;;3.75;;
37851;SDS011;23691;52.486;4.650;2023-07-08T02:54:08;10.15;;;4.05;;
37851;SDS011;23691;52.486;4.650;2023-07-08T02:56:33;10.48;;;3.60;;
37851;SDS011;23691;52.486;4.650;2023-07-08T02:58:59;11.95;;;4.03;;
37851;SDS011;23691;52.486;4.650;2023-07-08T03:01:24;10.10;;;3.45;;
37851;SDS011;23691;52.486;4.650;2023-07-08T03:03:53;10.02;;;4.30;;
37851;SDS011;23691;52.486;4.650;2023-07-08T03:06:23;9.68;;;3.58;;
37851;SDS011;23691;52.486;4.650;2023-07-08T03:08:48;9.35;;;4.03;;
37851;SDS011;23691;52.486;4.650;2023-07-08T03:11:14;12.25;;;4.43;;
37851;SDS011;23691;52.486;4.650;2023-07-08T03:13:41;11.20;;;4.13;;
37851;SDS011;23691;52.486;4.650;2023-07-08T03:16:07;10.75;;;3.75;;
37851;SDS011;23691;52.486;4.650;2023-07-08T03:18:38;11.18;;;3.83;;
37851;SDS011;23691;52.486;4.650;2023-07-08T03:21:11;10.48;;;3.58;;
37851;SDS011;23691;52.486;4.650;2023-07-08T03:23:38;10.10;;;3.45;;
37851;SDS011;23691;52.486;4.650;2023-07-08T03:26:04;9.73;;;3.80;;
37851;SDS011;23691;52.486;4.650;2023-07-08T03:28:29;9.90;;;3.93;;
37851;SDS011;23691;52.486;4.650;2023-07-08T03:30:55;10.27;;;4.05;;
37851;SDS011;23691;52.486;4.650;2023-07-08T03:33:20;10.02;;;3.47;;
37851;SDS011;23691;52.486;4.650;2023-07-08T03:35:46;10.00;;;3.93;;
37851;SDS011;23691;52.486;4.650;2023-07-08T03:38:12;9.68;;;3.65;;
37851;SDS011;23691;52.486;4.650;2023-07-08T03:40:37;10.13;;;3.45;;
37851;SDS011;23691;52.486;4.650;2023-07-08T03:43:03;9.15;;;3.70;;
37851;SDS011;23691;52.486;4.650;2023-07-08T03:45:28;10.27;;;3.85;;
37851;SDS011;23691;52.486;4.650;2023-07-08T03:47:54;9.77;;;4.10;;
37851;SDS011;23691;52.486;4.650;2023-07-08T03:50:20;9.07;;;3.67;;
37851;SDS011;23691;52.486;4.650;2023-07-08T03:52:47;10.37;;;3.70;;
37851;SDS011;23691;52.486;4.650;2023-07-08T03:55:15;9.43;;;3.70;;
37851;SDS011;23691;52.486;4.650;2023-07-08T03:57:41;9.77;;;3.88;;
37851;SDS011;23691;52.486;4.650;2023-07-08T04:00:07;9.05;;;3.80;;
37851;SDS011;23691;52.486;4.650;2023-07-08T04:02:43;10.35;;;3.70;;
37851;SDS011;23691;52.486;4.650;2023-07-08T04:05:13;8.37;;;3.17;;
37851;SDS011;23691;52.486;4.650;2023-07-08T04:07:42;10.52;;;3.65;;
37851;SDS011;23691;52.486;4.650;2023-07-08T04:10:08;8.63;;;3.47;;
37851;SDS011;23691;52.486;4.650;2023-07-08T04:12:35;9.40;;;3.83;;
37851;SDS011;23691;52.486;4.650;2023-07-08T04:15:01;9.65;;;4.13;;
37851;SDS011;23691;52.486;4.650;2023-07-08T04:17:27;11.50;;;3.70;;
37851;SDS011;23691;52.486;4.650;2023-07-08T04:19:52;10.90;;;4.00;;
37851;SDS011;23691;52.486;4.650;2023-07-08T04:22:18;10.10;;;3.67;;
37851;SDS011;23691;52.486;4.650;2023-07-08T04:24:43;14.73;;;3.95;;
37851;SDS011;23691;52.486;4.650;2023-07-08T04:27:13;10.70;;;3.90;;
37851;SDS011;23691;52.486;4.650;2023-07-08T04:29:40;8.55;;;3.42;;
37851;SDS011;23691;52.486;4.650;2023-07-08T04:32:06;8.27;;;3.23;;
37851;SDS011;23691;52.486;4.650;2023-07-08T04:34:32;9.43;;;3.97;;
37851;SDS011;23691;52.486;4.650;2023-07-08T04:36:58;9.90;;;3.90;;
37851;SDS011;23691;52.486;4.650;2023-07-08T04:39:23;8.90;;;3.40;;
37851;SDS011;23691;52.486;4.650;2023-07-08T04:41:49;12.07;;;3.90;;
37851;SDS011;23691;52.486;4.650;2023-07-08T04:44:14;10.23;;;3.80;;
37851;SDS011;23691;52.486;4.650;2023-07-08T04:49:19;7.97;;;3.35;;
37851;SDS011;23691;52.486;4.650;2023-07-08T04:51:45;9.98;;;3.83;;
37851;SDS011;23691;52.486;4.650;2023-07-08T04:54:12;10.35;;;3.60;;
37851;SDS011;23691;52.486;4.650;2023-07-08T04:56:40;9.77;;;3.60;;
37851;SDS011;23691;52.486;4.650;2023-07-08T04:59:10;9.98;;;3.63;;
37851;SDS011;23691;52.486;4.650;2023-07-08T05:01:38;11.32;;;3.30;;
37851;SDS011;23691;52.486;4.650;2023-07-08T05:04:04;9.60;;;3.83;;
37851;SDS011;23691;52.486;4.650;2023-07-08T05:06:30;8.68;;;3.30;;
37851;SDS011;23691;52.486;4.650;2023-07-08T05:08:57;8.75;;;3.67;;
37851;SDS011;23691;52.486;4.650;2023-07-08T05:11:24;8.90;;;3.70;;
37851;SDS011;23691;52.486;4.650;2023-07-08T05:13:50;9.73;;;3.30;;
37851;SDS011;23691;52.486;4.650;2023-07-08T05:16:16;9.20;;;3.40;;
37851;SDS011;23691;52.486;4.650;2023-07-08T05:18:41;9.60;;;3.63;;
37851;SDS011;23691;52.486;4.650;2023-07-08T05:21:08;9.23;;;3.67;;
37851;SDS011;23691;52.486;4.650;2023-07-08T05:23:34;10.83;;;3.30;;
37851;SDS011;23691;52.486;4.650;2023-07-08T05:26:03;9.97;;;3.80;;
37851;SDS011;23691;52.486;4.650;2023-07-08T05:28:34;9.35;;;3.42;;
37851;SDS011;23691;52.486;4.650;2023-07-08T05:30:59;9.83;;;3.43;;
37851;SDS011;23691;52.486;4.650;2023-07-08T05:33:27;8.23;;;3.05;;
37851;SDS011;23691;52.486;4.650;2023-07-08T05:35:55;9.02;;;3.17;;
37851;SDS011;23691;52.486;4.650;2023-07-08T05:38:24;9.27;;;3.22;;
37851;SDS011;23691;52.486;4.650;2023-07-08T05:40:51;9.45;;;3.50;;
37851;SDS011;23691;52.486;4.650;2023-07-08T05:43:19;8.90;;;3.10;;
37851;SDS011;23691;52.486;4.650;2023-07-08T05:45:45;8.73;;;3.10;;
37851;SDS011;23691;52.486;4.650;2023-07-08T05:48:10;7.90;;;3.20;;
37851;SDS011;23691;52.486;4.650;2023-07-08T05:50:36;8.13;;;3.33;;
37851;SDS011;23691;52.486;4.650;2023-07-08T05:53:02;9.57;;;3.72;;
37851;SDS011;23691;52.486;4.650;2023-07-08T05:55:28;11.37;;;3.30;;
37851;SDS011;23691;52.486;4.650;2023-07-08T05:57:54;12.75;;;5.25;;
37851;SDS011;23691;52.486;4.650;2023-07-08T06:00:20;10.55;;;3.65;;
37851;SDS011;23691;52.486;4.650;2023-07-08T06:02:45;7.70;;;3.40;;
37851;SDS011;23691;52.486;4.650;2023-07-08T06:05:11;8.27;;;3.00;;
37851;SDS011;23691;52.486;4.650;2023-07-08T06:07:36;8.70;;;3.28;;
37851;SDS011;23691;52.486;4.650;2023-07-08T06:10:02;11.57;;;3.10;;
37851;SDS011;23691;52.486;4.650;2023-07-08T06:12:29;9.18;;;3.22;;
37851;SDS011;23691;52.486;4.650;2023-07-08T06:14:55;8.23;;;2.93;;
37851;SDS011;23691;52.486;4.650;2023-07-08T06:17:21;9.93;;;3.17;;
37851;SDS011;23691;52.486;4.650;2023-07-08T06:19:47;8.68;;;3.03;;
37851;SDS011;23691;52.486;4.650;2023-07-08T06:22:12;6.97;;;2.63;;
37851;SDS011;23691;52.486;4.650;2023-07-08T06:24:38;9.10;;;3.15;;
37851;SDS011;23691;52.486;4.650;2023-07-08T06:27:03;9.77;;;3.28;;
37851;SDS011;23691;52.486;4.650;2023-07-08T06:29:29;8.70;;;2.97;;
37851;SDS011;23691;52.486;4.650;2023-07-08T06:31:55;10.70;;;3.22;;
37851;SDS011;23691;52.486;4.650;2023-07-08T06:34:20;7.65;;;2.88;;
37851;SDS011;23691;52.486;4.650;2023-07-08T06:36:48;10.82;;;3.03;;
37851;SDS011;23691;52.486;4.650;2023-07-08T06:39:14;7.28;;;2.83;;
37851;SDS011;23691;52.486;4.650;2023-07-08T06:41:39;11.35;;;2.90;;
37851;SDS011;23691;52.486;4.650;2023-07-08T06:44:05;7.82;;;2.70;;
37851;SDS011;23691;52.486;4.650;2023-07-08T06:46:30;7.57;;;2.90;;
37851;SDS011;23691;52.486;4.650;2023-07-08T06:48:56;6.40;;;2.33;;
37851;SDS011;23691;52.486;4.650;2023-07-08T06:51:22;7.00;;;2.90;;
37851;SDS011;23691;52.486;4.650;2023-07-08T06:53:47;9.05;;;2.70;;
37851;SDS011;23691;52.486;4.650;2023-07-08T06:56:13;10.40;;;2.78;;
37851;SDS011;23691;52.486;4.650;2023-07-08T06:58:38;8.05;;;3.00;;
37851;SDS011;23691;52.486;4.650;2023-07-08T07:01:03;6.90;;;2.72;;
37851;SDS011;23691;52.486;4.650;2023-07-08T07:03:29;8.90;;;2.80;;
37851;SDS011;23691;52.486;4.650;2023-07-08T07:05:54;9.20;;;3.20;;
37851;SDS011;23691;52.486;4.650;2023-07-08T07:08:20;7.90;;;3.30;;
37851;SDS011;23691;52.486;4.650;2023-07-08T07:10:46;9.30;;;2.73;;
37851;SDS011;23691;52.486;4.650;2023-07-08T07:13:11;9.50;;;3.10;;
37851;SDS011;23691;52.486;4.650;2023-07-08T07:15:37;7.63;;;3.10;;
37851;SDS011;23691;52.486;4.650;2023-07-08T07:18:02;9.35;;;2.65;;
37851;SDS011;23691;52.486;4.650;2023-07-08T07:20:28;8.60;;;2.63;;
37851;SDS011;23691;52.486;4.650;2023-07-08T07:22:54;9.65;;;3.08;;
37851;SDS011;23691;52.486;4.650;2023-07-08T07:25:20;9.65;;;2.90;;
37851;SDS011;23691;52.486;4.650;2023-07-08T07:27:46;9.83;;;3.17;;
37851;SDS011;23691;52.486;4.650;2023-07-08T07:30:12;7.90;;;3.00;;
37851;SDS011;23691;52.486;4.650;2023-07-08T07:35:06;8.23;;;2.63;;
37851;SDS011;23691;52.486;4.650;2023-07-08T07:37:32;7.47;;;2.72;;
37851;SDS011;23691;52.486;4.650;2023-07-08T07:39:57;8.98;;;2.85;;
37851;SDS011;23691;52.486;4.650;2023-07-08T07:42:23;8.68;;;2.95;;
37851;SDS011;23691;52.486;4.650;2023-07-08T07:44:48;8.40;;;2.92;;
37851;SDS011;23691;52.486;4.650;2023-07-08T07:47:13;7.50;;;2.97;;
37851;SDS011;23691;52.486;4.650;2023-07-08T07:49:39;8.73;;;3.00;;
37851;SDS011;23691;52.486;4.650;2023-07-08T07:52:05;8.87;;;2.90;;
37851;SDS011;23691;52.486;4.650;2023-07-08T07:54:31;8.70;;;2.90;;
37851;SDS011;23691;52.486;4.650;2023-07-08T07:57:00;8.03;;;2.93;;
37851;SDS011;23691;52.486;4.650;2023-07-08T07:59:31;8.10;;;2.80;;
37851;SDS011;23691;52.486;4.650;2023-07-08T08:01:57;7.95;;;2.88;;
37851;SDS011;23691;52.486;4.650;2023-07-08T08:04:22;10.77;;;3.10;;
37851;SDS011;23691;52.486;4.650;2023-07-08T08:06:48;7.90;;;2.80;;
37851;SDS011;23691;52.486;4.650;2023-07-08T08:09:13;7.25;;;2.60;;
37851;SDS011;23691;52.486;4.650;2023-07-08T08:11:39;7.93;;;2.90;;
37851;SDS011;23691;52.486;4.650;2023-07-08T08:14:04;8.20;;;2.78;;
37851;SDS011;23691;52.486;4.650;2023-07-08T08:16:30;9.02;;;3.30;;
37851;SDS011;23691;52.486;4.650;2023-07-08T08:18:56;8.57;;;2.88;;
37851;SDS011;23691;52.486;4.650;2023-07-08T08:21:21;8.68;;;3.00;;
37851;SDS011;23691;52.486;4.650;2023-07-08T08:23:47;8.65;;;2.90;;
37851;SDS011;23691;52.486;4.650;2023-07-08T08:26:13;10.10;;;2.70;;
37851;SDS011;23691;52.486;4.650;2023-07-08T08:28:39;10.30;;;2.97;;
37851;SDS011;23691;52.486;4.650;2023-07-08T08:31:05;7.30;;;2.88;;
37851;SDS011;23691;52.486;4.650;2023-07-08T08:33:30;8.25;;;2.63;;
37851;SDS011;23691;52.486;4.650;2023-07-08T08:35:56;7.50;;;2.83;;
37851;SDS011;23691;52.486;4.650;2023-07-08T08:38:21;8.43;;;2.63;;
37851;SDS011;23691;52.486;4.650;2023-07-08T08:40:46;6.67;;;2.67;;
37851;SDS011;23691;52.486;4.650;2023-07-08T08:43:17;8.63;;;2.90;;
37851;SDS011;23691;52.486;4.650;2023-07-08T08:45:57;7.07;;;2.92;;
37851;SDS011;23691;52.486;4.650;2023-07-08T08:48:29;7.97;;;2.90;;
37851;SDS011;23691;52.486;4.650;2023-07-08T08:51:02;8.10;;;2.80;;
37851;SDS011;23691;52.486;4.650;2023-07-08T08:53:33;8.15;;;2.70;;
37851;SDS011;23691;52.486;4.650;2023-07-08T08:56:09;8.57;;;2.80;;
37851;SDS011;23691;52.486;4.650;2023-07-08T08:59:37;9.50;;;2.65;;
37851;SDS011;23691;52.486;4.650;2023-07-08T09:01:50;8.65;;;3.25;;
37851;SDS011;23691;52.486;4.650;2023-07-08T09:04:21;8.57;;;3.00;;
37851;SDS011;23691;52.486;4.650;2023-07-08T09:06:53;11.45;;;2.95;;
37851;SDS011;23691;52.486;4.650;2023-07-08T09:09:37;8.68;;;2.80;;
37851;SDS011;23691;52.486;4.650;2023-07-08T09:12:08;11.23;;;2.97;;
37851;SDS011;23691;52.486;4.650;2023-07-08T09:14:38;7.40;;;2.88;;
37851;SDS011;23691;52.486;4.650;2023-07-08T09:17:24;7.33;;;3.00;;
37851;SDS011;23691;52.486;4.650;2023-07-08T09:20:01;7.38;;;2.97;;
37851;SDS011;23691;52.486;4.650;2023-07-08T09:27:52;9.75;;;3.00;;
37851;SDS011;23691;52.486;4.650;2023-07-08T09:30:19;12.88;;;3.25;;
37851;SDS011;23691;52.486;4.650;2023-07-08T09:32:46;10.18;;;2.92;;
37851;SDS011;23691;52.486;4.650;2023-07-08T09:35:21;9.85;;;3.10;;
37851;SDS011;23691;52.486;4.650;2023-07-08T09:37:53;7.60;;;2.88;;
37851;SDS011;23691;52.486;4.650;2023-07-08T09:40:30;9.23;;;3.20;;
37851;SDS011;23691;52.486;4.650;2023-07-08T09:45:27;9.00;;;3.17;;
37851;SDS011;23691;52.486;4.650;2023-07-08T09:48:01;10.33;;;2.73;;
37851;SDS011;23691;52.486;4.650;2023-07-08T09:50:28;8.48;;;3.10;;
37851;SDS011;23691;52.486;4.650;2023-07-08T09:55:27;8.90;;;3.10;;
37851;SDS011;23691;52.486;4.650;2023-07-08T09:57:54;17.42;;;2.80;;
37851;SDS011;23691;52.486;4.650;2023-07-08T10:00:38;7.47;;;2.90;;
37851;SDS011;23691;52.486;4.650;2023-07-08T10:03:09;9.02;;;3.20;;
37851;SDS011;23691;52.486;4.650;2023-07-08T10:05:48;9.88;;;3.30;;
37851;SDS011;23691;52.486;4.650;2023-07-08T10:08:16;7.80;;;2.90;;
37851;SDS011;23691;52.486;4.650;2023-07-08T10:10:45;7.63;;;2.88;;
37851;SDS011;23691;52.486;4.650;2023-07-08T10:13:17;11.85;;;3.60;;
37851;SDS011;23691;52.486;4.650;2023-07-08T10:15:55;11.23;;;3.63;;
37851;SDS011;23691;52.486;4.650;2023-07-08T10:18:28;8.00;;;2.80;;
37851;SDS011;23691;52.486;4.650;2023-07-08T10:21:03;10.38;;;3.33;;
37851;SDS011;23691;52.486;4.650;2023-07-08T10:23:54;6.90;;;2.92;;
37851;SDS011;23691;52.486;4.650;2023-07-08T10:26:31;9.82;;;3.05;;
37851;SDS011;23691;52.486;4.650;2023-07-08T10:29:13;7.22;;;2.80;;
37851;SDS011;23691;52.486;4.650;2023-07-08T10:31:51;8.18;;;3.20;;
37851;SDS011;23691;52.486;4.650;2023-07-08T10:34:41;8.63;;;3.17;;
37851;SDS011;23691;52.486;4.650;2023-07-08T10:39:56;8.32;;;3.13;;
37851;SDS011;23691;52.486;4.650;2023-07-08T10:59:06;8.65;;;3.10;;
37851;SDS011;23691;52.486;4.650;2023-07-08T11:01:57;8.57;;;3.13;;
37851;SDS011;23691;52.486;4.650;2023-07-08T11:07:24;7.72;;;3.00;;
37851;SDS011;23691;52.486;4.650;2023-07-08T11:10:10;9.70;;;3.50;;
37851;SDS011;23691;52.486;4.650;2023-07-08T11:13:13;8.32;;;3.13;;
37851;SDS011;23691;52.486;4.650;2023-07-08T11:30:32;11.23;;;3.50;;
37851;SDS011;23691;52.486;4.650;2023-07-08T11:33:08;9.57;;;3.38;;
37851;SDS011;23691;52.486;4.650;2023-07-08T11:35:41;7.82;;;3.22;;
37851;SDS011;23691;52.486;4.650;2023-07-08T11:38:10;8.57;;;3.58;;
37851;SDS011;23691;52.486;4.650;2023-07-08T11:40:58;8.70;;;3.33;;
37851;SDS011;23691;52.486;4.650;2023-07-08T11:53:58;9.77;;;3.25;;
37851;SDS011;23691;52.486;4.650;2023-07-08T11:56:46;9.38;;;3.33;;
37851;SDS011;23691;52.486;4.650;2023-07-08T11:59:21;11.63;;;3.40;;
37851;SDS011;23691;52.486;4.650;2023-07-08T12:01:53;14.02;;;3.40;;
37851;SDS011;23691;52.486;4.650;2023-07-08T12:04:55;8.27;;;3.40;;
37851;SDS011;23691;52.486;4.650;2023-07-08T12:07:34;7.93;;;3.10;;
37851;SDS011;23691;52.486;4.650;2023-07-08T12:13:14;8.45;;;3.47;;
37851;SDS011;23691;52.486;4.650;2023-07-08T12:15:55;11.52;;;3.33;;
37851;SDS011;23691;52.486;4.650;2023-07-08T12:18:30;9.73;;;3.35;;
37851;SDS011;23691;52.486;4.650;2023-07-08T12:21:09;7.90;;;3.05;;
37851;SDS011;23691;52.486;4.650;2023-07-08T12:23:46;9.27;;;3.17;;
37851;SDS011;23691;52.486;4.650;2023-07-08T12:26:15;8.45;;;3.40;;
37851;SDS011;23691;52.486;4.650;2023-07-08T12:28:42;11.02;;;4.00;;
37851;SDS011;23691;52.486;4.650;2023-07-08T12:31:17;10.52;;;3.92;;
37851;SDS011;23691;52.486;4.650;2023-07-08T12:33:51;9.70;;;3.13;;
37851;SDS011;23691;52.486;4.650;2023-07-08T12:36:22;7.25;;;2.92;;
37851;SDS011;23691;52.486;4.650;2023-07-08T12:38:53;10.75;;;3.78;;
37851;SDS011;23691;52.486;4.650;2023-07-08T12:41:32;10.90;;;3.30;;
37851;SDS011;23691;52.486;4.650;2023-07-08T12:44:25;9.65;;;3.58;;
37851;SDS011;23691;52.486;4.650;2023-07-08T12:47:01;11.65;;;3.47;;
37851;SDS011;23691;52.486;4.650;2023-07-08T12:49:28;8.80;;;3.42;;
37851;SDS011;23691;52.486;4.650;2023-07-08T12:51:55;11.48;;;3.78;;
37851;SDS011;23691;52.486;4.650;2023-07-08T12:56:57;10.38;;;3.60;;
37851;SDS011;23691;52.486;4.650;2023-07-08T12:59:26;8.32;;;3.75;;
37851;SDS011;23691;52.486;4.650;2023-07-08T13:02:03;9.23;;;3.37;;
37851;SDS011;23691;52.486;4.650;2023-07-08T13:08:35;10.23;;;3.75;;
37851;SDS011;23691;52.486;4.650;2023-07-08T13:14:56;8.20;;;3.55;;
37851;SDS011;23691;52.486;4.650;2023-07-08T13:18:34;9.07;;;3.70;;
37851;SDS011;23691;52.486;4.650;2023-07-08T13:42:46;9.30;;;3.83;;
37851;SDS011;23691;52.486;4.650;2023-07-08T13:45:18;8.07;;;3.63;;
37851;SDS011;23691;52.486;4.650;2023-07-08T13:47:59;9.45;;;4.00;;
37851;SDS011;23691;52.486;4.650;2023-07-08T13:50:26;10.63;;;3.85;;
37851;SDS011;23691;52.486;4.650;2023-07-08T13:52:56;15.68;;;4.13;;
37851;SDS011;23691;52.486;4.650;2023-07-08T13:55:22;9.13;;;3.70;;
37851;SDS011;23691;52.486;4.650;2023-07-08T14:00:28;9.35;;;3.80;;
37851;SDS011;23691;52.486;4.650;2023-07-08T14:02:59;8.50;;;3.40;;
37851;SDS011;23691;52.486;4.650;2023-07-08T14:05:24;10.82;;;4.03;;
37851;SDS011;23691;52.486;4.650;2023-07-08T14:07:50;9.60;;;3.60;;
37851;SDS011;23691;52.486;4.650;2023-07-08T14:10:15;12.43;;;3.78;;
37851;SDS011;23691;52.486;4.650;2023-07-08T14:12:41;8.37;;;3.60;;
37851;SDS011;23691;52.486;4.650;2023-07-08T14:15:10;10.30;;;3.60;;
37851;SDS011;23691;52.486;4.650;2023-07-08T14:17:38;11.15;;;3.40;;
37851;SDS011;23691;52.486;4.650;2023-07-08T14:20:08;11.00;;;3.83;;
37851;SDS011;23691;52.486;4.650;2023-07-08T14:22:37;9.85;;;3.70;;
37851;SDS011;23691;52.486;4.650;2023-07-08T14:25:05;9.80;;;3.70;;
37851;SDS011;23691;52.486;4.650;2023-07-08T14:27:33;9.60;;;3.72;;
37851;SDS011;23691;52.486;4.650;2023-07-08T14:29:58;8.38;;;3.70;;
37851;SDS011;23691;52.486;4.650;2023-07-08T14:32:26;10.65;;;3.97;;
37851;SDS011;23691;52.486;4.650;2023-07-08T14:34:55;9.55;;;3.97;;
37851;SDS011;23691;52.486;4.650;2023-07-08T14:37:22;9.73;;;3.78;;
37851;SDS011;23691;52.486;4.650;2023-07-08T14:39:48;9.17;;;3.63;;
37851;SDS011;23691;52.486;4.650;2023-07-08T14:42:14;9.53;;;3.87;;
37851;SDS011;23691;52.486;4.650;2023-07-08T14:44:43;8.55;;;4.13;;
37851;SDS011;23691;52.486;4.650;2023-07-08T14:47:14;8.77;;;4.20;;
37851;SDS011;23691;52.486;4.650;2023-07-08T14:49:43;8.98;;;4.00;;
37851;SDS011;23691;52.486;4.650;2023-07-08T14:52:09;12.60;;;4.28;;
37851;SDS011;23691;52.486;4.650;2023-07-08T14:54:34;11.50;;;4.50;;
37851;SDS011;23691;52.486;4.650;2023-07-08T14:57:00;10.32;;;4.60;;
37851;SDS011;23691;52.486;4.650;2023-07-08T14:59:28;11.18;;;4.40;;
37851;SDS011;23691;52.486;4.650;2023-07-08T15:01:56;10.50;;;4.30;;
37851;SDS011;23691;52.486;4.650;2023-07-08T15:04:24;11.18;;;4.35;;
37851;SDS011;23691;52.486;4.650;2023-07-08T15:06:49;9.40;;;4.10;;
37851;SDS011;23691;52.486;4.650;2023-07-08T15:09:17;10.18;;;4.20;;
37851;SDS011;23691;52.486;4.650;2023-07-08T15:11:43;8.00;;;3.67;;
37851;SDS011;23691;52.486;4.650;2023-07-08T15:14:14;9.13;;;3.58;;
37851;SDS011;23691;52.486;4.650;2023-07-08T15:16:41;13.55;;;4.05;;
37851;SDS011;23691;52.486;4.650;2023-07-08T15:19:10;9.27;;;4.05;;
37851;SDS011;23691;52.486;4.650;2023-07-08T15:21:36;10.57;;;3.87;;
37851;SDS011;23691;52.486;4.650;2023-07-08T15:24:03;11.73;;;4.20;;
37851;SDS011;23691;52.486;4.650;2023-07-08T15:26:28;10.20;;;3.85;;
37851;SDS011;23691;52.486;4.650;2023-07-08T15:28:54;8.63;;;3.78;;
37851;SDS011;23691;52.486;4.650;2023-07-08T15:31:21;12.57;;;4.10;;
37851;SDS011;23691;52.486;4.650;2023-07-08T15:33:49;10.30;;;3.85;;
37851;SDS011;23691;52.486;4.650;2023-07-08T15:36:16;8.10;;;3.50;;
37851;SDS011;23691;52.486;4.650;2023-07-08T15:38:42;8.77;;;3.60;;
37851;SDS011;23691;52.486;4.650;2023-07-08T15:41:18;11.93;;;3.93;;
37851;SDS011;23691;52.486;4.650;2023-07-08T15:43:47;7.95;;;3.60;;
37851;SDS011;23691;52.486;4.650;2023-07-08T15:46:13;12.02;;;4.25;;
37851;SDS011;23691;52.486;4.650;2023-07-08T15:48:40;14.07;;;5.55;;
37851;SDS011;23691;52.486;4.650;2023-07-08T15:51:07;12.73;;;5.20;;
37851;SDS011;23691;52.486;4.650;2023-07-08T15:53:33;12.75;;;4.10;;
37851;SDS011;23691;52.486;4.650;2023-07-08T15:55:59;9.57;;;4.65;;
37851;SDS011;23691;52.486;4.650;2023-07-08T15:58:26;13.13;;;5.90;;
37851;SDS011;23691;52.486;4.650;2023-07-08T16:00:57;18.45;;;9.40;;
37851;SDS011;23691;52.486;4.650;2023-07-08T16:03:25;20.05;;;10.65;;
37851;SDS011;23691;52.486;4.650;2023-07-08T16:05:53;56.72;;;30.88;;
37851;SDS011;23691;52.486;4.650;2023-07-08T16:08:20;43.40;;;37.33;;
37851;SDS011;23691;52.486;4.650;2023-07-08T16:10:49;62.23;;;50.63;;
37851;SDS011;23691;52.486;4.650;2023-07-08T16:13:23;30.90;;;27.60;;
37851;SDS011;23691;52.486;4.650;2023-07-08T16:15:52;22.15;;;17.20;;
37851;SDS011;23691;52.486;4.650;2023-07-08T16:18:18;18.42;;;14.85;;
37851;SDS011;23691;52.486;4.650;2023-07-08T16:20:45;16.38;;;9.27;;
37851;SDS011;23691;52.486;4.650;2023-07-08T16:23:12;14.30;;;6.85;;
37851;SDS011;23691;52.486;4.650;2023-07-08T16:25:39;12.50;;;6.45;;
37851;SDS011;23691;52.486;4.650;2023-07-08T16:28:17;12.18;;;5.07;;
37851;SDS011;23691;52.486;4.650;2023-07-08T16:30:56;11.40;;;5.25;;
37851;SDS011;23691;52.486;4.650;2023-07-08T16:33:21;12.52;;;5.35;;
37851;SDS011;23691;52.486;4.650;2023-07-08T16:35:49;13.32;;;5.53;;
37851;SDS011;23691;52.486;4.650;2023-07-08T16:38:15;14.35;;;5.78;;